createdAt,value
2022-09-15T00:00:10.575Z,100120.34
2022-09-15T00:05:31.357Z,100137.84
2022-09-15T00:11:01.980Z,100129.88
2022-09-15T00:16:24.913Z,100119.69
2022-09-15T00:21:45.700Z,100116.88
2022-09-15T00:27:06.180Z,100113.72
2022-09-15T00:32:27.097Z,100117.75
2022-09-15T00:37:47.697Z,100108.34
2022-09-15T00:43:10.502Z,100100.59
2022-09-15T00:48:31.582Z,100098.66
2022-09-15T00:53:53.480Z,100091.69
2022-09-15T00:59:23.116Z,100106.41
2022-09-15T01:04:43.856Z,100071.03
2022-09-15T01:10:15.002Z,100101.09
2022-09-15T01:15:49.503Z,100098.16
2022-09-15T01:21:23.434Z,100076.66
2022-09-15T01:26:55.046Z,100084.34
2022-09-15T01:33:06.241Z,100087.09
2022-09-15T01:38:38.036Z,100110.50
2022-09-15T01:44:10.176Z,100110.03
2022-09-15T01:49:55.571Z,100070.69
2022-09-15T01:55:32.741Z,100105.28
2022-09-15T02:00:59.176Z,100089.38
2022-09-15T02:06:37.012Z,100078.00
2022-09-15T02:12:22.646Z,100080.41
2022-09-15T02:17:50.442Z,100078.22
2022-09-15T02:23:19.353Z,100092.72
2022-09-15T02:28:42.977Z,100073.97
2022-09-15T02:34:13.244Z,100089.31
2022-09-15T02:39:39.971Z,100079.69
2022-09-15T02:45:01.371Z,100085.88
2022-09-15T02:50:22.325Z,100096.34
2022-09-15T02:55:43.396Z,100092.09
2022-09-15T03:01:08.343Z,100086.31
2022-09-15T03:06:34.444Z,100077.66
2022-09-15T03:11:55.121Z,100099.13
2022-09-15T03:17:16.256Z,100092.44
2022-09-15T03:22:37.273Z,100087.28
2022-09-15T03:27:58.184Z,100096.78
2022-09-15T03:33:18.839Z,100097.94
2022-09-15T03:38:39.398Z,100079.97
2022-09-15T03:44:00.204Z,100094.06
2022-09-15T03:49:21.270Z,100103.31
2022-09-15T03:54:42.025Z,100079.31
2022-09-15T04:00:04.721Z,100096.63
2022-09-15T04:05:25.222Z,100074.38
2022-09-15T04:10:46.309Z,100070.00
2022-09-15T04:16:09.995Z,100096.41
2022-09-15T04:21:31.690Z,100083.44
2022-09-15T04:26:52.452Z,100096.34
2022-09-15T04:32:12.993Z,100101.56
2022-09-15T04:37:33.838Z,100097.53
2022-09-15T04:42:54.616Z,100098.59
2022-09-15T04:48:16.796Z,100089.59
2022-09-15T04:53:37.719Z,100103.28
2022-09-15T04:59:03.583Z,100088.50
2022-09-15T05:04:25.788Z,100103.19
2022-09-15T05:09:46.456Z,100098.16
2022-09-15T05:15:08.172Z,100103.19
2022-09-15T05:20:29.769Z,100109.03
2022-09-15T05:25:57.695Z,100111.47
2022-09-15T05:31:31.187Z,100104.38
2022-09-15T05:36:51.928Z,100113.34
2022-09-15T05:42:12.591Z,100126.81
2022-09-15T05:47:33.922Z,100116.56
2022-09-15T05:52:54.327Z,100110.44
2022-09-15T05:58:15.386Z,100131.31
2022-09-15T06:03:36.423Z,100129.50
2022-09-15T06:08:58.870Z,100114.97
2022-09-15T06:14:21.165Z,100117.53
2022-09-15T06:19:42.085Z,100127.72
2022-09-15T06:25:02.350Z,100134.22
2022-09-15T06:30:23.257Z,100137.41
2022-09-15T06:35:43.871Z,100133.19
2022-09-15T06:41:05.044Z,100135.72
2022-09-15T06:46:28.290Z,100140.75
2022-09-15T06:51:48.896Z,100137.22
2022-09-15T06:57:09.696Z,100134.78
2022-09-15T07:02:30.289Z,100148.56
2022-09-15T07:07:50.933Z,100156.78
2022-09-15T07:13:11.503Z,100151.00
2022-09-15T07:18:32.632Z,100148.09
2022-09-15T07:23:53.111Z,100157.13
2022-09-15T07:29:13.810Z,100167.72
2022-09-15T07:34:34.153Z,100156.22
2022-09-15T07:39:54.956Z,100169.69
2022-09-15T07:45:15.800Z,100166.75
2022-09-15T07:50:36.439Z,100169.34
2022-09-15T07:55:57.341Z,100179.84
2022-09-15T08:01:20.141Z,100170.25
2022-09-15T08:06:40.812Z,100167.19
2022-09-15T08:12:01.584Z,100172.13
2022-09-15T08:17:22.256Z,100180.88
2022-09-15T08:22:43.588Z,100185.31
2022-09-15T08:28:04.576Z,100197.28
2022-09-15T08:33:25.641Z,100180.91
2022-09-15T08:38:46.948Z,100200.91
2022-09-15T08:44:44.699Z,100194.97
2022-09-15T08:50:31.228Z,100209.25
2022-09-15T08:56:09.321Z,100218.59
2022-09-15T09:01:58.435Z,100221.91
2022-09-15T09:07:40.637Z,100230.69
2022-09-15T09:13:32.026Z,100214.31
2022-09-15T09:19:28.970Z,100219.53
2022-09-15T09:24:56.730Z,100222.22
2022-09-15T09:30:21.364Z,100222.84
2022-09-15T09:35:43.353Z,100232.31
2022-09-15T09:41:08.661Z,100226.03
2022-09-15T09:46:30.170Z,100211.69
2022-09-15T09:51:53.796Z,100235.44
2022-09-15T09:57:14.489Z,100245.47
2022-09-15T10:02:46.897Z,100238.19
2022-09-15T10:08:14.660Z,100269.72
2022-09-15T10:13:49.190Z,100270.22
2022-09-15T10:19:14.855Z,100276.94
2022-09-15T10:24:40.291Z,100249.41
2022-09-15T10:30:13.198Z,100260.50
2022-09-15T10:35:33.673Z,100272.88
2022-09-15T10:41:21.922Z,100262.06
2022-09-15T10:47:04.112Z,100260.38
2022-09-15T10:52:45.543Z,100239.88
2022-09-15T10:58:39.858Z,100257.22
2022-09-15T11:04:17.600Z,100233.06
2022-09-15T11:10:17.227Z,100254.03
2022-09-15T11:15:55.227Z,100261.66
2022-09-15T11:21:34.487Z,100259.06
2022-09-15T11:27:32.105Z,100261.00
2022-09-15T11:33:02.009Z,100266.03
2022-09-15T11:38:38.438Z,100269.09
2022-09-15T11:44:06.187Z,100265.25
2022-09-15T11:49:35.012Z,100258.50
2022-09-15T11:55:09.108Z,100270.06
2022-09-15T12:00:31.629Z,100264.34
2022-09-15T12:05:57.100Z,100272.69
2022-09-15T12:19:43.984Z,100278.84
2022-09-15T12:25:19.883Z,100278.84
2022-09-15T12:30:42.632Z,100263.00
2022-09-15T12:36:39.863Z,100262.06
2022-09-15T12:42:00.420Z,100299.53
2022-09-15T12:47:32.326Z,100281.50
2022-09-15T12:52:56.311Z,100264.00
2022-09-15T12:58:24.281Z,100284.88
2022-09-15T13:03:49.381Z,100298.81
2022-09-15T13:09:28.113Z,100290.97
2022-09-15T13:14:51.676Z,100282.44
2022-09-15T13:20:23.821Z,100286.53
2022-09-15T13:25:46.438Z,100265.44
2022-09-15T13:31:25.339Z,100271.53
2022-09-15T13:43:10.768Z,100283.53
2022-09-15T13:48:37.562Z,100294.81
2022-09-15T13:54:17.040Z,100276.38
2022-09-15T13:59:37.783Z,100287.41
2022-09-15T14:04:58.464Z,100277.91
2022-09-15T14:10:23.183Z,100259.63
2022-09-15T14:15:57.984Z,100273.06
2022-09-15T14:21:25.296Z,100282.31
2022-09-15T14:26:46.168Z,100282.94
2022-09-15T14:32:09.410Z,100291.47
2022-09-15T14:37:34.761Z,100285.31
2022-09-15T14:42:55.523Z,100297.44
2022-09-15T14:48:17.065Z,100288.50
2022-09-15T14:53:41.245Z,100292.91
2022-09-15T14:59:06.643Z,100298.22
2022-09-15T15:04:36.323Z,100285.56
2022-09-15T15:10:15.837Z,100281.97
2022-09-15T15:15:37.917Z,100273.09
2022-09-15T15:20:58.951Z,100290.31
2022-09-15T15:26:35.796Z,100264.47
2022-09-15T15:32:18.068Z,100286.03
2022-09-15T15:37:42.344Z,100285.16
2022-09-15T15:43:30.378Z,100259.56
2022-09-15T15:48:54.107Z,100268.75
2022-09-15T15:54:14.833Z,100274.09
2022-09-15T15:59:38.120Z,100282.34
2022-09-15T16:05:00.004Z,100283.94
2022-09-15T16:10:23.730Z,100281.41
2022-09-15T16:15:45.789Z,100281.50
2022-09-15T16:21:07.403Z,100273.63
2022-09-15T16:26:28.453Z,100277.41
2022-09-15T16:31:50.118Z,100277.53
2022-09-15T16:37:10.387Z,100266.28
2022-09-15T16:42:31.003Z,100260.19
2022-09-15T16:47:51.925Z,100280.22
2022-09-15T16:53:17.924Z,100263.09
2022-09-15T16:58:39.134Z,100273.00
2022-09-15T17:03:59.656Z,100253.00
2022-09-15T17:09:20.236Z,100273.56
2022-09-15T17:14:40.845Z,100265.00
2022-09-15T17:20:01.468Z,100264.34
2022-09-15T17:25:29.405Z,100256.31
2022-09-15T17:30:52.877Z,100253.53
2022-09-15T17:36:13.347Z,100259.13
2022-09-15T17:41:35.213Z,100263.47
2022-09-15T17:46:56.026Z,100254.41
2022-09-15T17:52:41.729Z,100256.56
2022-09-15T17:58:03.022Z,100259.28
2022-09-15T18:03:33.245Z,100253.44
2022-09-15T18:08:53.873Z,100249.28
2022-09-15T18:14:14.464Z,100282.44
2022-09-15T18:19:34.963Z,100270.13
2022-09-15T18:24:56.360Z,100274.69
2022-09-15T18:30:18.149Z,100259.75
2022-09-15T18:35:40.697Z,100254.22
2022-09-15T18:41:01.438Z,100272.38
2022-09-15T18:46:22.302Z,100263.09
2022-09-15T18:51:58.289Z,100268.38
2022-09-15T18:57:19.206Z,100262.25
2022-09-15T19:02:39.870Z,100268.97
2022-09-15T19:08:02.065Z,100264.25
2022-09-15T19:13:22.644Z,100293.25
2022-09-15T19:18:44.903Z,100303.38
2022-09-15T19:24:05.649Z,100289.31
2022-09-15T19:29:27.759Z,100292.69
2022-09-15T19:34:49.013Z,100291.75
2022-09-15T19:40:12.867Z,100283.28
2022-09-15T19:45:33.269Z,100284.34
2022-09-15T19:50:53.819Z,100282.94
2022-09-15T19:56:16.459Z,100289.16
2022-09-15T20:01:37.441Z,100284.75
2022-09-15T20:06:58.175Z,100279.09
2022-09-15T20:17:42.264Z,100304.16
2022-09-15T20:23:02.858Z,100302.63
2022-09-15T20:28:26.514Z,100278.47
2022-09-15T20:33:48.560Z,100284.69
2022-09-15T20:39:14.600Z,100300.38
2022-09-15T20:44:35.583Z,100261.13
2022-09-15T20:49:56.711Z,100263.88
2022-09-15T20:55:17.269Z,100259.00
2022-09-15T21:00:37.891Z,100259.13
2022-09-15T21:06:01.143Z,100259.34
2022-09-15T21:11:22.207Z,100230.56
2022-09-15T21:16:43.755Z,100275.94
2022-09-15T21:22:04.774Z,100262.78
2022-09-15T21:27:28.954Z,100243.53
2022-09-15T21:32:49.556Z,100233.41
2022-09-15T21:38:11.105Z,100249.69
2022-09-15T21:43:43.110Z,100253.88
2022-09-15T21:49:03.773Z,100255.25
2022-09-15T21:54:24.288Z,100260.00
2022-09-15T21:59:45.613Z,100263.91
2022-09-15T22:05:06.499Z,100254.53
2022-09-15T22:10:27.177Z,100264.34
2022-09-15T22:15:47.708Z,100277.97
2022-09-15T22:21:09.598Z,100259.88
2022-09-15T22:26:32.974Z,100244.66
2022-09-15T22:31:54.620Z,100249.63
2022-09-15T22:37:15.488Z,100246.28
2022-09-15T22:42:35.701Z,100260.25
2022-09-15T22:47:56.648Z,100245.75
2022-09-15T22:53:16.935Z,100244.94
2022-09-15T22:58:41.003Z,100247.53
2022-09-15T23:04:02.563Z,100244.16
2022-09-15T23:09:22.775Z,100244.06
2022-09-15T23:14:43.204Z,100215.72
2022-09-15T23:20:04.827Z,100216.63
2022-09-15T23:25:25.854Z,100238.59
2022-09-15T23:30:51.124Z,100224.19
2022-09-15T23:36:16.277Z,100209.28
2022-09-15T23:41:39.054Z,100244.75
2022-09-15T23:47:00.039Z,100231.84
2022-09-15T23:52:20.655Z,100243.66
2022-09-15T23:57:41.359Z,100230.69
